PANCPATK

Guest
Details From PANC - Ted Stevens Anchorage Intl
To PATK - TALKEETNA
Flight Number -
Tags generated
Created
Modified
Stats Distance 69 nm / 128 km
Max Altitude 3,200 ft / 975 m
Waypoints 4
Social Downloads 3
Likes 0
Share VATSIM

Download

Looking for another format? Having issues loading an existing format? Contact us
Advertisement - Login to hide

Notes

Basic altitude profile: - Ascent Rate: 400ft/min - Ascent Speed: 140kts - Cruise Altitude: 5000ft - Cruise Speed: 190kts - Descent Rate: 400ft/min - Descent Speed: 140kts Options: - Use NATs: yes - Use PACOTS: yes - Use low airways: yes - Use high airways: no

Route

PANC URTOW V491 TKA PATK

ID Type Via Altitude Latitude Longitude Leg Dist Tot Dist Heading (true) Name
O PANC APT - 0 ft / 0 m 61.17411˚ -149.99598˚ - 0 nm - Ted Stevens Anchorage Intl
URTOW FIX - 3,200 ft / 975 m 62.06695˚ -150.06091˚ 53 nm 53 nm 358° / 358° -
TKA VOR V491 (AWY-LO) 3,000 ft / 914 m 62.29867˚ -150.10558˚ 13 nm 67 nm 355° / 355° TALKEETNA VOR-DME
O PATK APT - 0 ft / 0 m 62.32051˚ -150.09369˚ 1 nm 68 nm 14° / 14° TALKEETNA

Altitude Profile

Advertisement - Login to hide

PANC

Details ICAO PANC (ANC)
Name Ted Stevens Anchorage Intl
Region USA (Alaska)
Timezone America/Anchorage (UTC-9.0)
Stats Elevation 152 ft / 46 m (AMSL)
Location 61.174111° -149.995982°
Runways 3
Magnetic Variation 16.224° E

METAR

PANC 121453Z 33003KT 10SM FEW070 OVC100 01/M01 A2969

Decode

TAF

PANC 121513Z 1215/1318 34006KT P6SM SCT070 OVC100 WS020/12035KT FM130100 14012G20KT P6SM SCT045 BKN070 FM130700 34005KT P6SM SCT070 BKN100 WS020/12035KT

Decode

Departure Runways

ID Width Length Bearing (true) Bearing (mag) Surface Threshold Offset Overrun Length
07L 151 ft / 46 m 10,563 ft / 3,220 m 89.88° 73.66° Asphalt 0 ft / 0 m 381 ft / 116 m
07R 151 ft / 46 m 10,862 ft / 3,311 m 89.85° 73.63° Asphalt 0 ft / 0 m 499 ft / 152 m
15 151 ft / 46 m 11,563 ft / 3,524 m 164.90° 148.68° Asphalt 200 ft / 61 m 220 ft / 67 m
25L 151 ft / 46 m 10,862 ft / 3,311 m 269.91° 253.69° Asphalt 0 ft / 0 m 151 ft / 46 m
25R 151 ft / 46 m 10,563 ft / 3,220 m 269.94° 253.72° Asphalt 0 ft / 0 m 381 ft / 116 m
33 151 ft / 46 m 11,563 ft / 3,524 m 344.91° 328.69° Asphalt 892 ft / 272 m 449 ft / 137 m

PATK

Details ICAO PATK (TKA)
Name TALKEETNA
Region USA (Alaska)
Timezone America/Anchorage (UTC-9.0)
Stats Elevation 358 ft / 109 m (AMSL)
Location 62.320512° -150.093685°
Runways 1
Magnetic Variation 16.358° E

METAR

PATK 121453Z AUTO 00000KT 10SM OVC080 02/M03 A2972 RMK AO2 SLP069 T00171033 53008 TSNO $

Decode

TAF

TAF PATK 121147Z 1212/1312 02008KT P6SM SCT060 BKN100

Decode

Destination Runways

ID Width Length Bearing (true) Bearing (mag) Surface Threshold Offset Overrun Length
18 75 ft / 23 m 3,503 ft / 1,068 m 207.01° 190.65° Asphalt 0 ft / 0 m 0 ft / 0 m
36 75 ft / 23 m 3,503 ft / 1,068 m 27.01° 10.65° Asphalt 0 ft / 0 m 0 ft / 0 m

Popular Alternatives